Time;durP1;ratioP1;P1;durP2;ratioP2;P2;SDS_P1;SDS_P2;PMS_P1;PMS_P2;Temp;Humidity;BMP_temperature;BMP_pressure;BME280_temperature;BME280_humidity;BME280_pressure;Samples;Min_cycle;Max_cycle;Signal;HPM_P1;HPM_P2
2023/07/30 00:02:18;;;;;;;10.68;9.07;;;;;;;-148.88;100.00;-17125.47;5046492;28;20028;-84
2023/07/30 00:04:46;;;;;;;12.23;10.10;;;;;;;-148.88;100.00;-17125.47;5045341;28;20104;-83
2023/07/30 00:07:13;;;;;;;12.43;10.35;;;;;;;-148.88;100.00;-17125.47;5046546;28;20045;-83
2023/07/30 00:09:39;;;;;;;13.95;10.65;;;;;;;-148.88;100.00;-17125.47;5044549;28;20083;-82
2023/07/30 00:12:08;;;;;;;13.18;10.80;;;;;;;-148.88;100.00;-17125.47;5042896;28;20056;-81
2023/07/30 00:14:34;;;;;;;13.18;11.15;;;;;;;-148.88;100.00;-17125.47;5042292;28;20121;-83
2023/07/30 00:16:59;;;;;;;12.68;11.23;;;;;;;-148.88;100.00;-17125.47;5043517;28;20057;-82
2023/07/30 00:19:24;;;;;;;13.30;11.88;;;;;;;-148.88;100.00;-17125.47;5042859;28;20033;-83
2023/07/30 00:21:50;;;;;;;14.15;12.05;;;;;;;-148.88;100.00;-17125.47;5042741;28;20028;-83
2023/07/30 00:24:15;;;;;;;13.63;11.85;;;;;;;-148.88;100.00;-17125.47;5042951;28;20021;-83
2023/07/30 00:26:40;;;;;;;13.80;11.95;;;;;;;-148.88;100.00;-17125.47;5039181;28;20028;-82
2023/07/30 00:29:06;;;;;;;16.13;11.55;;;;;;;-148.88;100.00;-17125.47;5040295;28;20028;-82
2023/07/30 00:31:32;;;;;;;14.43;10.95;;;;;;;-148.88;100.00;-17125.47;5040104;28;20017;-83
2023/07/30 00:33:57;;;;;;;12.50;11.20;;;;;;;-148.88;100.00;-17125.47;5041165;28;20090;-83
2023/07/30 00:36:22;;;;;;;14.85;10.88;;;;;;;-148.88;100.00;-17125.47;5041444;28;20030;-83
2023/07/30 00:38:48;;;;;;;13.02;10.90;;;;;;;-148.88;100.00;-17125.47;5042049;28;20430;-84
2023/07/30 00:41:13;;;;;;;15.13;10.80;;;;;;;-148.88;100.00;-17125.47;5041319;28;20059;-82
2023/07/30 00:43:38;;;;;;;14.90;11.10;;;;;;;-148.88;100.00;-17125.47;5042395;28;20056;-82
2023/07/30 00:46:04;;;;;;;14.05;11.05;;;;;;;-148.88;100.00;-17125.47;5040282;28;20053;-83
2023/07/30 00:48:29;;;;;;;11.82;10.23;;;;;;;-148.88;100.00;-17125.47;5041304;28;20029;-83
2023/07/30 00:50:55;;;;;;;11.60;8.73;;;;;;;-148.88;100.00;-17125.47;5042891;28;20048;-84
2023/07/30 00:53:23;;;;;;;10.48;8.98;;;;;;;-148.88;100.00;-17125.47;5042515;28;20033;-83
2023/07/30 00:55:49;;;;;;;14.13;9.38;;;;;;;-148.88;100.00;-17125.47;5043066;28;20132;-83
2023/07/30 00:58:15;;;;;;;12.38;9.15;;;;;;;-148.88;100.00;-17125.47;5041877;28;20032;-83
2023/07/30 01:00:41;;;;;;;10.43;8.07;;;;;;;-148.88;100.00;-17125.47;5042750;28;20108;-83
2023/07/30 01:03:06;;;;;;;13.68;8.88;;;;;;;-148.88;100.00;-17125.47;5040865;28;20021;-82
2023/07/30 01:05:33;;;;;;;14.40;7.70;;;;;;;-148.88;100.00;-17125.47;5038074;28;20025;-83
2023/07/30 01:07:58;;;;;;;11.02;7.45;;;;;;;-148.88;100.00;-17125.47;5044974;28;20029;-83
2023/07/30 01:10:25;;;;;;;9.85;7.40;;;;;;;-148.88;100.00;-17125.47;5044563;28;20392;-83
2023/07/30 01:12:51;;;;;;;8.65;7.43;;;;;;;-148.88;100.00;-17125.47;5043590;28;20561;-84
2023/07/30 01:15:17;;;;;;;12.20;7.70;;;;;;;-148.88;100.00;-17125.47;5042548;28;20053;-83
2023/07/30 01:17:43;;;;;;;12.85;7.88;;;;;;;-148.88;100.00;-17125.47;5042899;28;20507;-83
2023/07/30 01:20:10;;;;;;;9.90;8.18;;;;;;;-148.88;100.00;-17125.47;5043357;28;20603;-84
2023/07/30 01:22:35;;;;;;;11.98;8.75;;;;;;;-148.88;100.00;-17125.47;5043492;28;20038;-83
2023/07/30 01:25:01;;;;;;;13.80;8.77;;;;;;;-148.88;100.00;-17125.47;5040865;28;20077;-84
2023/07/30 01:27:29;;;;;;;10.90;8.30;;;;;;;-148.88;100.00;-17125.47;5042516;28;20026;-83
2023/07/30 01:30:05;;;;;;;14.68;9.18;;;;;;;-148.88;100.00;-17125.47;5042664;28;20021;-83
2023/07/30 01:32:32;;;;;;;11.05;8.50;;;;;;;-148.88;100.00;-17125.47;5040160;28;20032;-83
2023/07/30 01:34:59;;;;;;;12.68;9.05;;;;;;;-148.88;100.00;-17125.47;5041251;28;20132;-83
2023/07/30 01:37:26;;;;;;;14.40;9.00;;;;;;;-148.88;100.00;-17125.47;5041784;28;20029;-83
2023/07/30 01:39:52;;;;;;;12.10;9.20;;;;;;;-148.88;100.00;-17125.47;5040259;28;20017;-83
2023/07/30 01:42:17;;;;;;;12.18;8.60;;;;;;;-148.88;100.00;-17125.47;5036327;28;20021;-83
2023/07/30 01:44:43;;;;;;;11.95;8.43;;;;;;;-148.88;100.00;-17125.47;5038308;28;20017;-83
2023/07/30 01:47:08;;;;;;;12.57;8.68;;;;;;;-148.88;100.00;-17125.47;5038187;28;20071;-83
2023/07/30 01:49:33;;;;;;;12.93;8.95;;;;;;;-148.88;100.00;-17125.47;5038655;28;20108;-82
2023/07/30 01:51:59;;;;;;;14.52;9.43;;;;;;;-148.88;100.00;-17125.47;5040376;28;20034;-83
2023/07/30 01:54:25;;;;;;;13.88;10.00;;;;;;;-148.88;100.00;-17125.47;5039127;28;20025;-83
2023/07/30 01:56:50;;;;;;;13.88;10.05;;;;;;;-148.88;100.00;-17125.47;5042803;28;20037;-83
2023/07/30 01:59:16;;;;;;;14.30;10.25;;;;;;;-148.88;100.00;-17125.47;5043140;28;20036;-83
2023/07/30 02:01:42;;;;;;;15.52;9.88;;;;;;;-148.88;100.00;-17125.47;5043999;28;20056;-83
2023/07/30 02:04:07;;;;;;;14.48;9.32;;;;;;;-148.88;100.00;-17125.47;5040718;28;20076;-83
2023/07/30 02:06:32;;;;;;;14.90;9.57;;;;;;;-148.88;100.00;-17125.47;5039804;28;20029;-83
2023/07/30 02:08:58;;;;;;;12.30;8.13;;;;;;;-148.88;100.00;-17125.47;5039746;28;20052;-84
2023/07/30 02:11:24;;;;;;;14.30;8.48;;;;;;;-148.88;100.00;-17125.47;5039399;28;20025;-83
2023/07/30 02:13:50;;;;;;;10.77;8.05;;;;;;;-148.88;100.00;-17125.47;5039984;28;20025;-83
2023/07/30 02:16:15;;;;;;;12.20;7.90;;;;;;;-148.88;100.00;-17125.47;5038329;28;20047;-82
2023/07/30 02:18:41;;;;;;;14.68;7.22;;;;;;;-148.88;100.00;-17125.47;5036835;28;20018;-83
2023/07/30 02:21:06;;;;;;;9.20;7.13;;;;;;;-148.88;100.00;-17125.47;5036005;28;20064;-82
2023/07/30 02:23:32;;;;;;;11.25;6.82;;;;;;;-148.88;100.00;-17125.47;5038087;28;20028;-83
2023/07/30 02:25:57;;;;;;;14.32;7.80;;;;;;;-148.88;100.00;-17125.47;5039762;28;20116;-83
2023/07/30 02:28:22;;;;;;;9.45;7.50;;;;;;;-148.88;100.00;-17125.47;5039888;28;20396;-83
2023/07/30 02:30:47;;;;;;;15.23;8.55;;;;;;;-148.88;100.00;-17125.47;5038845;28;20388;-83
2023/07/30 02:33:13;;;;;;;11.88;8.02;;;;;;;-148.88;100.00;-17125.47;5037918;28;20029;-83
2023/07/30 02:35:38;;;;;;;10.85;7.90;;;;;;;-148.88;100.00;-17125.47;5038584;28;20034;-82
2023/07/30 02:38:03;;;;;;;11.18;8.48;;;;;;;-148.88;100.00;-17125.47;5038469;28;20037;-82
2023/07/30 02:40:29;;;;;;;14.63;9.20;;;;;;;-148.88;100.00;-17125.47;5038990;28;20037;-83
2023/07/30 02:42:54;;;;;;;12.43;8.60;;;;;;;-148.88;100.00;-17125.47;5039064;28;20032;-83
2023/07/30 02:45:20;;;;;;;10.93;7.88;;;;;;;-148.88;100.00;-17125.47;5041106;28;20072;-81
2023/07/30 02:47:45;;;;;;;12.73;8.55;;;;;;;-148.88;100.00;-17125.47;5040944;28;20036;-82
2023/07/30 02:50:10;;;;;;;14.75;8.85;;;;;;;-148.88;100.00;-17125.47;5041280;28;20025;-82
2023/07/30 02:52:36;;;;;;;14.55;10.13;;;;;;;-148.88;100.00;-17125.47;5042799;28;20051;-83
2023/07/30 02:55:01;;;;;;;16.90;10.07;;;;;;;-148.88;100.00;-17125.47;5042657;28;20055;-83
2023/07/30 02:57:26;;;;;;;13.52;8.52;;;;;;;-148.88;100.00;-17125.47;5039010;28;20100;-83
2023/07/30 02:59:52;;;;;;;14.82;8.85;;;;;;;-148.88;100.00;-17125.47;5052502;22;20041;-71
2023/07/30 03:02:17;;;;;;;15.48;9.30;;;;;;;-148.88;100.00;-17125.47;5034720;28;20108;-71
2023/07/30 03:04:42;;;;;;;13.50;9.55;;;;;;;-148.88;100.00;-17125.47;5035987;28;20033;-71
2023/07/30 03:07:09;;;;;;;15.57;9.50;;;;;;;-148.88;100.00;-17125.47;5035921;28;20056;-71
2023/07/30 03:09:34;;;;;;;13.10;9.73;;;;;;;-148.88;100.00;-17125.47;5035863;28;20092;-71
2023/07/30 03:12:00;;;;;;;15.82;10.70;;;;;;;-148.88;100.00;-17125.47;5035956;28;20045;-71
2023/07/30 03:14:25;;;;;;;18.25;12.00;;;;;;;-148.88;100.00;-17125.47;5034552;28;20079;-71
2023/07/30 03:16:51;;;;;;;16.50;12.32;;;;;;;-148.88;100.00;-17125.47;5035543;28;20029;-71
2023/07/30 03:19:16;;;;;;;18.05;14.00;;;;;;;-148.88;100.00;-17125.47;5035596;28;20109;-72
2023/07/30 03:21:42;;;;;;;20.95;15.18;;;;;;;-148.88;100.00;-17125.47;5035635;28;20036;-71
2023/07/30 03:24:07;;;;;;;23.27;15.95;;;;;;;-148.88;100.00;-17125.47;5035534;28;20021;-71
2023/07/30 03:26:32;;;;;;;23.92;17.35;;;;;;;-148.88;100.00;-17125.47;5035416;28;20028;-71
2023/07/30 03:28:58;;;;;;;24.50;17.17;;;;;;;-148.88;100.00;-17125.47;5035494;28;20511;-72
2023/07/30 03:31:23;;;;;;;23.50;17.10;;;;;;;-148.88;100.00;-17125.47;5035402;28;20060;-71
2023/07/30 03:33:49;;;;;;;24.05;17.90;;;;;;;-148.88;100.00;-17125.47;5035607;28;20133;-71
2023/07/30 03:36:14;;;;;;;22.45;17.42;;;;;;;-148.88;100.00;-17125.47;5035290;28;20025;-71
2023/07/30 03:38:43;;;;;;;21.90;17.52;;;;;;;-148.88;100.00;-17125.47;5035167;28;20017;-71
2023/07/30 03:41:10;;;;;;;23.95;17.23;;;;;;;-148.88;100.00;-17125.47;5035483;28;20034;-72
2023/07/30 03:43:36;;;;;;;24.23;15.43;;;;;;;-148.88;100.00;-17125.47;5035623;28;20025;-71
2023/07/30 03:46:01;;;;;;;19.40;15.15;;;;;;;-148.88;100.00;-17125.47;5035574;28;20021;-71
2023/07/30 03:48:27;;;;;;;22.00;13.18;;;;;;;-148.88;100.00;-17125.47;5035528;28;20125;-72
2023/07/30 03:50:56;;;;;;;19.48;11.80;;;;;;;-148.88;100.00;-17125.47;5035434;28;20021;-71
2023/07/30 03:53:21;;;;;;;17.67;11.40;;;;;;;-148.88;100.00;-17125.47;5035658;28;20025;-71
2023/07/30 03:55:47;;;;;;;15.23;10.63;;;;;;;-148.88;100.00;-17125.47;5033192;28;20024;-71
2023/07/30 03:58:13;;;;;;;16.20;9.52;;;;;;;-148.88;100.00;-17125.47;5035308;28;20025;-71
2023/07/30 04:00:39;;;;;;;16.40;9.85;;;;;;;-148.88;100.00;-17125.47;5035270;28;20408;-71
2023/07/30 04:03:04;;;;;;;20.65;9.00;;;;;;;-148.88;100.00;-17125.47;5035547;28;20388;-71
2023/07/30 04:05:30;;;;;;;17.30;7.70;;;;;;;-148.88;100.00;-17125.47;5035458;28;20017;-71
2023/07/30 04:07:56;;;;;;;14.82;7.07;;;;;;;-148.88;100.00;-17125.47;5035209;28;20037;-71
2023/07/30 04:10:21;;;;;;;13.43;7.20;;;;;;;-148.88;100.00;-17125.47;5035121;28;20029;-71
2023/07/30 04:12:47;;;;;;;8.63;6.03;;;;;;;-148.88;100.00;-17125.47;5035108;28;20186;-71
2023/07/30 04:15:12;;;;;;;13.93;5.85;;;;;;;-148.88;100.00;-17125.47;5035051;28;20026;-71
2023/07/30 04:17:37;;;;;;;9.57;5.20;;;;;;;-148.88;100.00;-17125.47;5035030;28;20049;-71
2023/07/30 04:20:04;;;;;;;11.00;5.47;;;;;;;-148.88;100.00;-17125.47;5034924;28;20056;-71
2023/07/30 04:22:30;;;;;;;12.00;5.30;;;;;;;-148.88;100.00;-17125.47;5034870;28;20057;-71
2023/07/30 04:24:55;;;;;;;8.75;4.68;;;;;;;-148.88;100.00;-17125.47;5034829;28;20560;-71
2023/07/30 04:27:20;;;;;;;9.13;4.50;;;;;;;-148.88;100.00;-17125.47;5034688;28;20018;-72
2023/07/30 04:29:46;;;;;;;11.70;4.07;;;;;;;-148.88;100.00;-17125.47;5034715;28;20107;-72
2023/07/30 04:32:11;;;;;;;9.07;4.35;;;;;;;-148.88;100.00;-17125.47;5033472;28;20392;-72
2023/07/30 04:34:37;;;;;;;14.68;5.13;;;;;;;-148.88;100.00;-17125.47;5034897;28;20017;-71
2023/07/30 04:37:02;;;;;;;10.75;4.57;;;;;;;-148.88;100.00;-17125.47;5034600;28;20091;-71
2023/07/30 04:39:28;;;;;;;11.20;4.03;;;;;;;-148.88;100.00;-17125.47;5034440;28;20044;-71
2023/07/30 04:41:53;;;;;;;12.25;5.00;;;;;;;-148.88;100.00;-17125.47;5034525;28;20037;-72
2023/07/30 04:44:18;;;;;;;8.98;4.40;;;;;;;-148.88;100.00;-17125.47;5034475;28;20049;-71
2023/07/30 04:46:44;;;;;;;11.20;4.40;;;;;;;-148.88;100.00;-17125.47;5034368;28;20036;-71
2023/07/30 04:49:09;;;;;;;11.48;4.57;;;;;;;-148.88;100.00;-17125.47;5034469;28;20032;-71
2023/07/30 04:51:35;;;;;;;12.98;4.53;;;;;;;-148.88;100.00;-17125.47;5034307;28;20559;-71
2023/07/30 04:54:00;;;;;;;11.45;4.57;;;;;;;-148.88;100.00;-17125.47;5032957;28;20028;-71
2023/07/30 04:56:26;;;;;;;8.50;4.05;;;;;;;-148.88;100.00;-17125.47;5034213;28;20195;-71
2023/07/30 04:58:53;;;;;;;9.98;4.05;;;;;;;-148.88;100.00;-17125.47;5034083;28;20021;-71
2023/07/30 05:01:18;;;;;;;9.13;4.25;;;;;;;-148.88;100.00;-17125.47;5034065;28;20033;-71
2023/07/30 05:03:43;;;;;;;9.35;3.67;;;;;;;-148.88;100.00;-17125.47;5034272;28;20105;-71
2023/07/30 05:06:08;;;;;;;9.20;3.75;;;;;;;-148.88;100.00;-17125.47;5034027;28;20021;-72
2023/07/30 05:08:34;;;;;;;8.43;3.65;;;;;;;-148.88;100.00;-17125.47;5033945;28;20041;-72
2023/07/30 05:10:59;;;;;;;8.35;3.75;;;;;;;-148.88;100.00;-17125.47;5034348;28;20056;-72
2023/07/30 05:13:24;;;;;;;8.30;4.00;;;;;;;-148.88;100.00;-17125.47;5034186;28;20049;-72
2023/07/30 05:15:50;;;;;;;10.43;3.83;;;;;;;-148.88;100.00;-17125.47;5033973;28;20029;-71
2023/07/30 05:18:15;;;;;;;9.50;3.88;;;;;;;-148.88;100.00;-17125.47;5033747;28;20049;-72
2023/07/30 05:20:40;;;;;;;9.95;4.28;;;;;;;-148.88;100.00;-17125.47;5033820;28;20025;-72
2023/07/30 05:23:06;;;;;;;9.82;3.60;;;;;;;-148.88;100.00;-17125.47;5033751;28;20399;-71
2023/07/30 05:25:32;;;;;;;7.63;3.80;;;;;;;-148.88;100.00;-17125.47;5032445;28;20027;-72
2023/07/30 05:27:57;;;;;;;9.48;3.97;;;;;;;-148.88;100.00;-17125.47;5034365;28;20075;-71
2023/07/30 05:30:23;;;;;;;9.25;3.60;;;;;;;-148.88;100.00;-17125.47;5033792;28;20037;-71
2023/07/30 05:32:48;;;;;;;10.95;3.47;;;;;;;-148.88;100.00;-17125.47;5033790;28;20025;-72
2023/07/30 05:35:13;;;;;;;7.55;3.65;;;;;;;-148.88;100.00;-17125.47;5033562;28;20025;-73
2023/07/30 05:37:39;;;;;;;7.38;3.63;;;;;;;-148.88;100.00;-17125.47;5032163;28;20021;-72
2023/07/30 05:40:05;;;;;;;8.73;3.42;;;;;;;-148.88;100.00;-17125.47;5033421;28;20108;-72
2023/07/30 05:42:30;;;;;;;10.80;3.95;;;;;;;-148.88;100.00;-17125.47;5033706;28;20110;-72
2023/07/30 05:44:56;;;;;;;10.45;3.97;;;;;;;-148.88;100.00;-17125.47;5033315;28;20212;-72
2023/07/30 05:47:24;;;;;;;11.48;4.38;;;;;;;-148.88;100.00;-17125.47;5033454;28;20036;-72
2023/07/30 05:49:49;;;;;;;10.45;3.92;;;;;;;-148.88;100.00;-17125.47;5033608;28;20384;-72
2023/07/30 05:52:15;;;;;;;7.63;4.25;;;;;;;-148.88;100.00;-17125.47;5033621;28;20049;-72
2023/07/30 05:55:15;;;;;;;12.18;4.88;;;;;;;-148.88;100.00;-17125.47;5060476;22;20040;-85
2023/07/30 05:57:49;;;;;;;8.27;3.88;;;;;;;-148.88;100.00;-17125.47;5068898;28;20514;-84
2023/07/30 06:00:18;;;;;;;14.57;4.30;;;;;;;-148.88;100.00;-17125.47;5052627;28;20071;-85
2023/07/30 06:02:51;;;;;;;8.43;3.75;;;;;;;-148.88;100.00;-17125.47;5053734;28;20029;-85
2023/07/30 06:05:31;;;;;;;11.82;4.38;;;;;;;-148.88;100.00;-17125.47;5053769;28;20434;-85
2023/07/30 06:08:01;;;;;;;12.80;3.83;;;;;;;-148.88;100.00;-17125.47;5052495;28;20029;-85
2023/07/30 06:10:33;;;;;;;8.48;3.78;;;;;;;-148.88;100.00;-17125.47;5052213;28;20037;-85
2023/07/30 06:12:59;;;;;;;10.48;3.92;;;;;;;-148.88;100.00;-17125.47;5053206;28;20033;-83
2023/07/30 06:15:27;;;;;;;12.07;4.30;;;;;;;-148.88;100.00;-17125.47;5051965;28;20029;-85
2023/07/30 06:17:56;;;;;;;10.88;4.55;;;;;;;-148.88;100.00;-17125.47;5051612;28;20064;-85
2023/07/30 06:20:22;;;;;;;10.07;4.28;;;;;;;-148.88;100.00;-17125.47;5051774;28;20025;-84
2023/07/30 06:23:09;;;;;;;9.48;4.30;;;;;;;-148.88;100.00;-17125.47;5056527;28;20052;-84
2023/07/30 06:25:45;;;;;;;9.15;4.80;;;;;;;-148.88;100.00;-17125.47;5060027;28;20120;-86
2023/07/30 06:28:13;;;;;;;11.15;5.28;;;;;;;-148.88;100.00;-17125.47;5052010;28;20065;-84
2023/07/30 06:30:46;;;;;;;12.05;5.70;;;;;;;-148.88;100.00;-17125.47;5052021;28;20025;-84
2023/07/30 06:33:14;;;;;;;11.55;6.38;;;;;;;-148.88;100.00;-17125.47;5052638;28;20036;-86
2023/07/30 06:35:40;;;;;;;13.60;7.20;;;;;;;-148.88;100.00;-17125.47;5052467;28;20156;-83
2023/07/30 06:38:14;;;;;;;16.70;7.78;;;;;;;-148.88;100.00;-17125.47;5053081;28;20067;-84
2023/07/30 06:40:39;;;;;;;22.60;8.88;;;;;;;-148.88;100.00;-17125.47;5052119;28;20025;-84
2023/07/30 06:43:14;;;;;;;17.13;9.10;;;;;;;-148.88;100.00;-17125.47;5053582;28;20027;-84
2023/07/30 06:45:45;;;;;;;17.95;9.38;;;;;;;-148.88;100.00;-17125.47;5052289;28;20085;-83
2023/07/30 06:48:24;;;;;;;21.35;9.75;;;;;;;-148.88;100.00;-17125.47;5052699;28;20092;-83
2023/07/30 06:50:53;;;;;;;16.80;9.15;;;;;;;-148.88;100.00;-17125.47;5052937;28;20056;-84
2023/07/30 06:53:18;;;;;;;17.42;10.00;;;;;;;-148.88;100.00;-17125.47;5051653;28;20032;-83
2023/07/30 06:56:07;;;;;;;20.73;10.05;;;;;;;-148.88;100.00;-17125.47;5053113;28;20046;-81
2023/07/30 06:58:59;;;;;;;14.63;8.73;;;;;;;-148.88;100.00;-17125.47;5051928;28;20423;-84
2023/07/30 07:01:35;;;;;;;16.38;9.15;;;;;;;-148.88;100.00;-17125.47;5051876;28;20040;-84
2023/07/30 07:04:25;;;;;;;22.08;9.88;;;;;;;-148.88;100.00;-17125.47;5053909;28;20025;-85
2023/07/30 07:07:10;;;;;;;19.70;9.27;;;;;;;-148.88;100.00;-17125.47;5051937;28;20029;-85
2023/07/30 07:09:48;;;;;;;16.95;8.57;;;;;;;-148.88;100.00;-17125.47;5037028;28;20434;-84
2023/07/30 07:12:16;;;;;;;16.92;8.75;;;;;;;-148.88;100.00;-17125.47;5051904;28;20086;-85
2023/07/30 07:14:51;;;;;;;16.75;8.35;;;;;;;-148.88;100.00;-17125.47;5054295;28;20031;-84
2023/07/30 07:18:03;;;;;;;17.08;8.15;;;;;;;-148.88;100.00;-17125.47;5052648;28;20071;-87
2023/07/30 07:20:28;;;;;;;13.93;7.88;;;;;;;-148.88;100.00;-17125.47;5051031;28;20040;-84
2023/07/30 07:22:53;;;;;;;15.18;8.38;;;;;;;-148.88;100.00;-17125.47;5052340;28;20119;-85
2023/07/30 07:25:31;;;;;;;16.95;8.75;;;;;;;-148.88;100.00;-17125.47;5051649;28;20475;-86
2023/07/30 07:28:24;;;;;;;18.58;9.20;;;;;;;-148.88;100.00;-17125.47;5051127;28;20090;-87
2023/07/30 07:30:56;;;;;;;14.57;8.90;;;;;;;-148.88;100.00;-17125.47;5053410;28;20032;-85
2023/07/30 07:33:25;;;;;;;17.67;9.45;;;;;;;-148.88;100.00;-17125.47;5055262;28;20106;-85
2023/07/30 07:36:10;;;;;;;23.27;9.68;;;;;;;-148.88;100.00;-17125.47;5055084;28;20029;-86
2023/07/30 07:38:38;;;;;;;17.48;11.15;;;;;;;-148.88;100.00;-17125.47;5055840;28;20024;-86
2023/07/30 07:41:06;;;;;;;20.17;11.65;;;;;;;-148.88;100.00;-17125.47;5055538;28;20020;-86
2023/07/30 07:43:47;;;;;;;18.83;11.63;;;;;;;-148.88;100.00;-17125.47;5054481;28;20029;-86
2023/07/30 07:46:13;;;;;;;17.83;11.55;;;;;;;-148.88;100.00;-17125.47;5055753;28;20044;-86
2023/07/30 07:48:46;;;;;;;20.52;12.90;;;;;;;-148.88;100.00;-17125.47;5054884;28;20025;-86
2023/07/30 07:51:11;;;;;;;21.30;13.65;;;;;;;-148.88;100.00;-17125.47;5055158;28;20021;-85
2023/07/30 07:54:11;;;;;;;23.55;14.38;;;;;;;-148.88;100.00;-17125.47;5055846;28;20029;-86
2023/07/30 07:56:31;;;;;;;19.67;14.52;;;;;;;-148.88;100.00;-17125.47;5054784;28;20033;-87
2023/07/30 07:58:59;;;;;;;21.55;15.00;;;;;;;-148.88;100.00;-17125.47;5054460;28;20021;-86
2023/07/30 08:01:25;;;;;;;25.38;16.42;;;;;;;-148.88;100.00;-17125.47;5054594;28;20020;-86
2023/07/30 08:03:51;;;;;;;29.15;17.48;;;;;;;-148.88;100.00;-17125.47;5054257;28;20044;-86
2023/07/30 08:06:29;;;;;;;21.83;17.50;;;;;;;-148.88;100.00;-17125.47;5055213;28;20021;-86
2023/07/30 08:08:55;;;;;;;24.73;17.75;;;;;;;-148.88;100.00;-17125.47;5061496;22;20036;-73
2023/07/30 08:11:20;;;;;;;24.52;17.58;;;;;;;-148.88;100.00;-17125.47;5033177;28;20503;-72
2023/07/30 08:13:45;;;;;;;26.35;17.95;;;;;;;-148.88;100.00;-17125.47;5035719;28;20104;-71
2023/07/30 08:16:11;;;;;;;20.77;16.52;;;;;;;-148.88;100.00;-17125.47;5035179;28;20032;-72
2023/07/30 08:18:36;;;;;;;26.00;18.67;;;;;;;-148.88;100.00;-17125.47;5033498;28;20510;-72
2023/07/30 08:21:02;;;;;;;23.15;17.35;;;;;;;-148.88;100.00;-17125.47;5034841;28;20052;-72
2023/07/30 08:23:27;;;;;;;26.65;17.83;;;;;;;-148.88;100.00;-17125.47;5034862;28;20029;-72
2023/07/30 08:25:52;;;;;;;23.55;16.75;;;;;;;-148.88;100.00;-17125.47;5033496;28;20025;-72
2023/07/30 08:28:18;;;;;;;24.02;16.40;;;;;;;-148.88;100.00;-17125.47;5034728;28;20504;-72
2023/07/30 08:30:44;;;;;;;25.17;16.15;;;;;;;-148.88;100.00;-17125.47;5034727;28;20029;-72
2023/07/30 08:33:12;;;;;;;24.85;15.98;;;;;;;-148.88;100.00;-17125.47;5034761;28;20026;-72
2023/07/30 08:35:37;;;;;;;23.98;16.70;;;;;;;-148.88;100.00;-17125.47;5034544;28;20021;-73
2023/07/30 08:38:03;;;;;;;22.38;15.07;;;;;;;-148.88;100.00;-17125.47;5034391;28;20495;-72
2023/07/30 08:40:29;;;;;;;24.70;15.07;;;;;;;-148.88;100.00;-17125.47;5034384;28;20025;-72
2023/07/30 08:42:54;;;;;;;20.02;13.90;;;;;;;-148.88;100.00;-17125.47;5033001;28;20036;-72
2023/07/30 08:45:20;;;;;;;18.00;13.60;;;;;;;-148.88;100.00;-17125.47;5033127;28;20402;-72
2023/07/30 08:47:46;;;;;;;24.92;12.95;;;;;;;-148.88;100.00;-17125.47;5034569;28;20029;-73
2023/07/30 08:50:12;;;;;;;20.88;13.02;;;;;;;-148.88;100.00;-17125.47;5034345;28;20028;-72
2023/07/30 08:52:38;;;;;;;19.90;13.02;;;;;;;-148.88;100.00;-17125.47;5033005;28;20025;-73
2023/07/30 08:55:04;;;;;;;27.17;14.35;;;;;;;-148.88;100.00;-17125.47;5034155;28;20110;-73
2023/07/30 08:57:30;;;;;;;25.77;15.00;;;;;;;-148.88;100.00;-17125.47;5034078;28;20025;-72
2023/07/30 09:00:08;;;;;;;22.55;14.65;;;;;;;-148.88;100.00;-17125.47;5057266;22;20129;-83
2023/07/30 09:02:59;;;;;;;23.80;15.43;;;;;;;-148.88;100.00;-17125.47;5043322;28;20476;-82
2023/07/30 09:05:29;;;;;;;24.85;15.73;;;;;;;-148.88;100.00;-17125.47;5041152;28;20049;-82
2023/07/30 09:07:55;;;;;;;23.20;15.57;;;;;;;-148.88;100.00;-17125.47;5041995;28;20026;-82
2023/07/30 09:10:20;;;;;;;25.95;15.35;;;;;;;-148.88;100.00;-17125.47;5042406;28;20055;-82
2023/07/30 09:12:52;;;;;;;26.02;15.68;;;;;;;-148.88;100.00;-17125.47;5042456;28;20025;-81
2023/07/30 09:15:18;;;;;;;25.90;15.60;;;;;;;-148.88;100.00;-17125.47;5042369;28;20049;-82
2023/07/30 09:17:45;;;;;;;24.85;15.48;;;;;;;-148.88;100.00;-17125.47;5042187;28;20029;-83
2023/07/30 09:20:10;;;;;;;24.60;14.73;;;;;;;-148.88;100.00;-17125.47;5040587;28;20021;-83
2023/07/30 09:22:38;;;;;;;25.90;14.85;;;;;;;-148.88;100.00;-17125.47;5041984;28;20112;-82
2023/07/30 09:25:04;;;;;;;24.45;14.45;;;;;;;-148.88;100.00;-17125.47;5041014;28;20036;-83
2023/07/30 09:27:31;;;;;;;27.48;14.65;;;;;;;-148.88;100.00;-17125.47;5042665;28;20388;-83
2023/07/30 09:29:58;;;;;;;28.23;14.00;;;;;;;-148.88;100.00;-17125.47;5043113;28;20022;-83
2023/07/30 09:32:28;;;;;;;24.30;13.23;;;;;;;-148.88;100.00;-17125.47;5041329;28;20025;-82
2023/07/30 09:34:54;;;;;;;22.25;13.15;;;;;;;-148.88;100.00;-17125.47;5038392;28;20022;-82
2023/07/30 09:37:20;;;;;;;18.52;11.25;;;;;;;-148.88;100.00;-17125.47;5036900;28;20025;-83
2023/07/30 09:39:48;;;;;;;22.15;11.70;;;;;;;-148.88;100.00;-17125.47;5038649;28;20025;-81
2023/07/30 09:42:13;;;;;;;21.60;11.82;;;;;;;-148.88;100.00;-17125.47;5041358;28;20502;-82
2023/07/30 09:44:39;;;;;;;20.33;11.77;;;;;;;-148.88;100.00;-17125.47;5040137;28;20071;-82
2023/07/30 09:47:09;;;;;;;18.77;11.63;;;;;;;-148.88;100.00;-17125.47;5038859;28;20025;-83
2023/07/30 09:49:35;;;;;;;21.00;11.60;;;;;;;-148.88;100.00;-17125.47;5040080;28;20044;-82
2023/07/30 09:52:02;;;;;;;20.42;11.25;;;;;;;-148.88;100.00;-17125.47;5037619;28;20033;-83
2023/07/30 09:54:29;;;;;;;21.83;10.35;;;;;;;-148.88;100.00;-17125.47;5038301;28;20048;-83
2023/07/30 09:56:54;;;;;;;17.77;10.43;;;;;;;-148.88;100.00;-17125.47;5041042;28;20026;-83
2023/07/30 09:59:20;;;;;;;19.58;9.73;;;;;;;-148.88;100.00;-17125.47;5040123;28;20028;-83
2023/07/30 10:01:49;;;;;;;18.02;9.18;;;;;;;-148.88;100.00;-17125.47;5041008;28;20064;-82
2023/07/30 10:04:18;;;;;;;21.15;9.18;;;;;;;-148.88;100.00;-17125.47;5042971;28;20022;-83
2023/07/30 10:06:56;;;;;;;18.77;9.55;;;;;;;-148.88;100.00;-17125.47;5043818;28;20072;-83
2023/07/30 10:09:25;;;;;;;21.67;10.07;;;;;;;-148.88;100.00;-17125.47;5040952;28;20029;-83
2023/07/30 10:11:53;;;;;;;18.63;9.63;;;;;;;-148.88;100.00;-17125.47;5041015;28;20033;-82
2023/07/30 10:14:22;;;;;;;18.48;10.07;;;;;;;-148.88;100.00;-17125.47;5034148;28;20047;-82
2023/07/30 10:16:53;;;;;;;19.67;10.13;;;;;;;-148.88;100.00;-17125.47;5037110;28;20100;-82
2023/07/30 10:19:28;;;;;;;20.45;10.07;;;;;;;-148.88;100.00;-17125.47;5039111;28;20076;-85
2023/07/30 10:22:12;;;;;;;18.90;10.95;;;;;;;-148.88;100.00;-17125.47;5038773;28;20030;-81
2023/07/30 10:24:41;;;;;;;17.48;10.73;;;;;;;-148.88;100.00;-17125.47;5041242;28;20049;-82
2023/07/30 10:27:08;;;;;;;18.27;10.45;;;;;;;-148.88;100.00;-17125.47;5039176;28;20029;-82
2023/07/30 10:29:41;;;;;;;17.25;9.80;;;;;;;-148.88;100.00;-17125.47;5040964;28;20026;-82
2023/07/30 10:32:07;;;;;;;17.23;9.02;;;;;;;-148.88;100.00;-17125.47;5040726;28;20116;-83
2023/07/30 10:34:46;;;;;;;22.02;9.98;;;;;;;-148.88;100.00;-17125.47;5038293;28;20468;-83
2023/07/30 10:37:17;;;;;;;16.50;8.32;;;;;;;-148.88;100.00;-17125.47;5038728;28;20514;-82
2023/07/30 10:39:43;;;;;;;16.52;9.00;;;;;;;-148.88;100.00;-17125.47;5040382;28;20018;-83
2023/07/30 10:42:08;;;;;;;16.25;9.00;;;;;;;-148.88;100.00;-17125.47;5040021;28;20052;-83
2023/07/30 10:44:35;;;;;;;17.70;9.55;;;;;;;-148.88;100.00;-17125.47;5039696;28;20040;-81
2023/07/30 10:47:03;;;;;;;14.30;8.00;;;;;;;-148.88;100.00;-17125.47;5038981;28;20395;-82
2023/07/30 10:49:29;;;;;;;15.18;9.02;;;;;;;-148.88;100.00;-17125.47;5039144;28;20026;-82
2023/07/30 10:51:57;;;;;;;15.85;8.93;;;;;;;-148.88;99.89;-17125.47;5034537;28;20412;-82
2023/07/30 10:54:23;;;;;;;19.20;10.18;;;;;;;-148.88;99.86;-17125.47;5036823;28;20029;-83
2023/07/30 10:56:49;;;;;;;14.70;9.77;;;;;;;-148.88;99.25;-17125.47;5037368;28;20026;-81